Weather at Barra Airport

Public forecast

Using degrees Celsius for public forecast. Weather courtesy of forecast.io.

Closest aviation weather report (METAR) to Barra Airport

Closest report is Benbecula Airport, 27.6 nm (51.2 km) N.

2023/02/03 09:20 (retrieved 27 minutes ago)

EGPL 030920Z 21008KT 9999 FEW015 BKN018 08/06 Q1020

Closest aviation forecast (TAF) to Barra Airport

Closest forecast is Glasgow International Airport, 121.4 nm (224.9 km) ESE.

2023/02/03 06:00 (retrieved 4 hours ago)

TAF EGPF 030455Z 0306/0406 24009KT 9999 SCT025 PROB40 TEMPO 0306/0308 8000 TEMPO 0308/0313 7000 -RA BKN012 PROB30 TEMPO 0309/0312 4000 DZ BKN005